Time;durP1;ratioP1;P1;durP2;ratioP2;P2;SDS_P1;SDS_P2;PMS_P1;PMS_P2;Temp;Humidity;BMP_temperature;BMP_pressure;BME280_temperature;BME280_humidity;BME280_pressure;Samples;Min_cycle;Max_cycle;Signal;HPM_P1;HPM_P2
2023/01/25 00:02:04;;;;;;;14.60;9.00;;;1.70;99.90;;;;;;4990169;28;20204;-92
2023/01/25 00:04:33;;;;;;;12.18;8.23;;;1.70;99.90;;;;;;4976289;28;20218;-93
2023/01/25 00:07:02;;;;;;;14.38;10.43;;;1.70;99.90;;;;;;4978945;28;20256;-93
2023/01/25 00:09:29;;;;;;;15.70;8.55;;;1.70;99.90;;;;;;4980625;28;20212;-92
2023/01/25 00:11:57;;;;;;;17.73;9.43;;;1.80;99.90;;;;;;4976290;28;20227;-93
2023/01/25 00:14:24;;;;;;;17.05;9.73;;;1.70;99.90;;;;;;4977119;28;20239;-92
2023/01/25 00:16:55;;;;;;;17.52;8.60;;;1.80;99.90;;;;;;4976843;28;20207;-92
2023/01/25 00:19:23;;;;;;;17.08;9.65;;;1.80;99.90;;;;;;4978563;28;20647;-92
2023/01/25 00:21:50;;;;;;;13.90;8.90;;;1.80;99.90;;;;;;4981134;28;20204;-93
2023/01/25 00:24:21;;;;;;;15.02;9.25;;;1.80;99.90;;;;;;4977700;28;20199;-93
2023/01/25 00:26:49;;;;;;;15.77;9.27;;;1.80;99.90;;;;;;4977932;28;20231;-93
2023/01/25 00:29:19;;;;;;;13.63;9.02;;;1.80;99.90;;;;;;4979282;28;20203;-92
2023/01/25 00:32:00;;;;;;;17.45;8.93;;;1.80;99.90;;;;;;4980886;28;20224;-93
2023/01/25 00:34:43;;;;;;;15.52;9.55;;;1.80;99.90;;;;;;4979060;28;20234;-92
2023/01/25 00:37:20;;;;;;;14.95;8.88;;;1.80;99.90;;;;;;4977220;28;20231;-93
2023/01/25 00:39:49;;;;;;;19.98;10.38;;;1.80;99.90;;;;;;4986211;28;20203;-92
2023/01/25 00:42:18;;;;;;;17.58;9.43;;;1.80;99.90;;;;;;4991686;28;20244;-93
2023/01/25 00:44:50;;;;;;;15.02;9.45;;;1.80;99.90;;;;;;4985978;28;20207;-94
2023/01/25 00:47:19;;;;;;;18.52;10.40;;;1.80;99.90;;;;;;4990111;28;20231;-94
2023/01/25 00:49:47;;;;;;;16.83;10.27;;;1.80;99.90;;;;;;4986379;28;20203;-93
2023/01/25 00:52:15;;;;;;;15.98;9.13;;;1.80;99.90;;;;;;4982981;28;20286;-93
2023/01/25 00:54:42;;;;;;;15.40;8.75;;;1.80;99.90;;;;;;4982909;28;20673;-93
2023/01/25 00:57:11;;;;;;;18.08;10.45;;;1.80;99.90;;;;;;4982061;28;20223;-93
2023/01/25 00:59:43;;;;;;;15.00;9.15;;;1.80;99.90;;;;;;4982212;28;20214;-93
2023/01/25 01:02:11;;;;;;;17.52;9.25;;;1.80;99.90;;;;;;4983188;28;20212;-93
2023/01/25 01:04:38;;;;;;;15.63;9.25;;;1.80;99.90;;;;;;4987346;28;20228;-92
2023/01/25 01:07:05;;;;;;;17.50;9.40;;;1.80;99.90;;;;;;4979449;28;20728;-92
2023/01/25 01:09:32;;;;;;;24.48;10.20;;;1.80;99.90;;;;;;4975814;28;20211;-91
2023/01/25 01:12:00;;;;;;;14.77;9.68;;;1.80;99.90;;;;;;4976831;28;20223;-93
2023/01/25 01:14:29;;;;;;;16.25;9.27;;;1.80;99.90;;;;;;4990470;28;20208;-92
2023/01/25 01:16:56;;;;;;;12.07;9.23;;;1.80;99.90;;;;;;4983234;28;20187;-93
2023/01/25 01:19:23;;;;;;;21.98;10.30;;;1.80;99.90;;;;;;4974949;28;20218;-92
2023/01/25 01:21:50;;;;;;;19.00;10.38;;;1.80;99.90;;;;;;4974464;28;20214;-93
2023/01/25 01:24:18;;;;;;;22.25;9.90;;;1.80;99.90;;;;;;4975633;28;20310;-92
2023/01/25 01:26:45;;;;;;;17.92;9.93;;;1.90;99.90;;;;;;4975351;28;20239;-92
2023/01/25 01:29:13;;;;;;;15.07;7.88;;;1.90;99.90;;;;;;4981230;28;20218;-92
2023/01/25 01:31:41;;;;;;;16.88;9.00;;;1.80;99.90;;;;;;4988314;28;20705;-94
2023/01/25 01:34:12;;;;;;;13.60;9.23;;;1.80;99.90;;;;;;4982877;28;20219;-94
2023/01/25 01:36:38;;;;;;;13.82;8.43;;;1.80;99.90;;;;;;4976843;28;20216;-92
2023/01/25 01:39:05;;;;;;;17.98;9.35;;;1.80;99.90;;;;;;4978116;28;20279;-93
2023/01/25 01:41:32;;;;;;;18.00;9.40;;;1.80;99.90;;;;;;4976790;28;20395;-92
2023/01/25 01:43:59;;;;;;;12.35;8.77;;;1.80;99.90;;;;;;4977314;28;20219;-92
2023/01/25 01:46:33;;;;;;;16.92;8.80;;;1.80;99.90;;;;;;4978238;28;20218;-93
2023/01/25 01:49:05;;;;;;;15.95;9.02;;;1.80;99.90;;;;;;4985401;28;20204;-93
2023/01/25 01:51:42;;;;;;;13.35;8.48;;;1.80;99.90;;;;;;4987610;28;20192;-94
2023/01/25 01:54:14;;;;;;;12.23;8.32;;;1.80;99.90;;;;;;4992062;28;20290;-94
2023/01/25 01:56:47;;;;;;;14.02;8.70;;;1.80;99.90;;;;;;4991645;28;20219;-95
2023/01/25 01:59:16;;;;;;;13.88;8.70;;;1.80;99.90;;;;;;4988236;28;20298;-95
2023/01/25 02:01:44;;;;;;;17.58;9.63;;;1.80;99.90;;;;;;4982593;28;20215;-95
2023/01/25 02:04:16;;;;;;;18.75;10.02;;;1.80;99.90;;;;;;4984285;28;20291;-95
2023/01/25 02:06:48;;;;;;;15.55;8.88;;;1.80;99.90;;;;;;4999581;28;20187;-95
2023/01/25 02:09:18;;;;;;;13.48;8.20;;;1.80;99.90;;;;;;5001403;28;20204;-94
2023/01/25 02:11:46;;;;;;;13.63;9.27;;;1.80;99.90;;;;;;4990464;28;20223;-94
2023/01/25 02:14:16;;;;;;;14.65;9.30;;;1.70;99.90;;;;;;4989441;28;20233;-94
2023/01/25 02:16:44;;;;;;;16.02;8.63;;;1.70;99.90;;;;;;4988992;28;20274;-94
2023/01/25 02:19:22;;;;;;;11.35;7.43;;;1.70;99.90;;;;;;4988409;28;20208;-94
2023/01/25 02:21:52;;;;;;;13.80;8.88;;;1.70;99.90;;;;;;4987763;28;20294;-94
2023/01/25 02:24:24;;;;;;;13.00;7.85;;;1.80;99.90;;;;;;4987039;28;20272;-93
2023/01/25 02:26:52;;;;;;;17.60;8.25;;;1.80;99.90;;;;;;4986555;28;20302;-93
2023/01/25 02:29:22;;;;;;;15.55;8.27;;;1.80;99.90;;;;;;4987869;28;20276;-93
2023/01/25 02:31:51;;;;;;;12.38;8.20;;;1.80;99.90;;;;;;4989180;28;20204;-93
2023/01/25 02:34:18;;;;;;;17.60;8.63;;;1.80;99.90;;;;;;4988839;28;20228;-92
2023/01/25 02:36:46;;;;;;;14.10;8.68;;;1.80;99.90;;;;;;4987263;28;20243;-92
2023/01/25 02:39:17;;;;;;;12.05;7.82;;;1.80;99.90;;;;;;4986995;28;20204;-93
2023/01/25 02:41:46;;;;;;;13.23;8.23;;;1.80;99.90;;;;;;4992481;28;20250;-94
2023/01/25 02:44:17;;;;;;;15.23;8.43;;;1.80;99.90;;;;;;4989325;28;20287;-94
2023/01/25 02:46:46;;;;;;;15.13;7.80;;;1.80;99.90;;;;;;4989760;28;20214;-93
2023/01/25 02:49:14;;;;;;;17.42;9.25;;;1.80;99.90;;;;;;4986615;28;20212;-93
2023/01/25 02:51:43;;;;;;;16.92;9.32;;;1.80;99.90;;;;;;4985877;28;20291;-94
2023/01/25 02:54:12;;;;;;;14.25;7.90;;;1.80;99.90;;;;;;4989687;28;20219;-94
2023/01/25 02:56:40;;;;;;;11.60;6.93;;;1.70;99.90;;;;;;4986175;28;20286;-94
2023/01/25 02:59:07;;;;;;;16.42;9.07;;;1.80;99.90;;;;;;4986147;28;20262;-93
2023/01/25 03:01:37;;;;;;;14.43;8.77;;;1.80;99.90;;;;;;4992084;28;20227;-93
2023/01/25 03:04:05;;;;;;;16.63;9.45;;;1.80;99.90;;;;;;4991179;28;20216;-93
2023/01/25 03:06:32;;;;;;;13.30;7.40;;;1.70;99.90;;;;;;4986036;28;20214;-93
2023/01/25 03:09:00;;;;;;;14.00;8.65;;;1.80;99.90;;;;;;4986288;28;20219;-94
2023/01/25 03:11:27;;;;;;;14.68;7.93;;;1.80;99.90;;;;;;4987116;28;20210;-93
2023/01/25 03:13:54;;;;;;;13.43;9.10;;;1.80;99.90;;;;;;4986094;28;20427;-93
2023/01/25 03:16:21;;;;;;;15.13;10.00;;;1.70;99.90;;;;;;4985762;28;20214;-93
2023/01/25 03:18:53;;;;;;;13.32;8.05;;;1.70;99.90;;;;;;4983293;28;20211;-93
2023/01/25 03:21:21;;;;;;;12.50;7.63;;;1.80;99.90;;;;;;4985945;28;20236;-92
2023/01/25 03:23:54;;;;;;;15.65;9.63;;;1.80;99.90;;;;;;4984025;28;20243;-93
2023/01/25 03:26:22;;;;;;;13.55;8.15;;;1.80;99.90;;;;;;4985140;28;20200;-93
2023/01/25 03:28:49;;;;;;;17.05;9.27;;;1.70;99.90;;;;;;4984009;28;20218;-93
2023/01/25 03:31:17;;;;;;;11.60;8.15;;;1.70;99.90;;;;;;4986704;28;20200;-94
2023/01/25 03:33:45;;;;;;;14.57;8.50;;;1.70;99.90;;;;;;4985777;28;20251;-93
2023/01/25 03:36:13;;;;;;;13.77;9.30;;;1.70;99.90;;;;;;4987701;28;20302;-93
2023/01/25 03:38:40;;;;;;;18.98;8.95;;;1.70;99.90;;;;;;4988634;28;20208;-93
2023/01/25 03:41:09;;;;;;;13.95;8.88;;;1.80;99.90;;;;;;4988525;28;20216;-93
2023/01/25 03:43:36;;;;;;;11.85;8.40;;;1.70;99.90;;;;;;4989453;28;20216;-93
2023/01/25 03:46:03;;;;;;;16.15;9.05;;;1.70;99.90;;;;;;4997478;28;20207;-93
2023/01/25 03:48:30;;;;;;;15.07;8.30;;;1.70;99.90;;;;;;5000148;28;20232;-94
2023/01/25 03:50:59;;;;;;;16.88;9.25;;;1.70;99.90;;;;;;5000271;28;20184;-94
2023/01/25 03:53:29;;;;;;;11.50;7.70;;;1.60;99.90;;;;;;4999624;28;20231;-94
2023/01/25 03:55:57;;;;;;;16.88;8.60;;;1.70;99.90;;;;;;4999371;28;20255;-93
2023/01/25 03:58:27;;;;;;;15.77;8.93;;;1.70;99.90;;;;;;4999162;28;20195;-93
2023/01/25 04:00:56;;;;;;;11.80;7.22;;;1.70;99.90;;;;;;4999004;28;20203;-94
2023/01/25 04:03:24;;;;;;;15.00;8.35;;;1.70;99.90;;;;;;4992661;28;20223;-93
2023/01/25 04:05:51;;;;;;;14.65;8.18;;;1.70;99.90;;;;;;4989213;28;20204;-94
2023/01/25 04:08:18;;;;;;;14.68;8.75;;;1.70;99.90;;;;;;4988125;28;20218;-93
2023/01/25 04:10:52;;;;;;;14.93;7.30;;;1.70;99.90;;;;;;4989010;28;20200;-94
2023/01/25 04:13:20;;;;;;;15.55;8.18;;;1.70;99.90;;;;;;4989394;28;20319;-92
2023/01/25 04:15:47;;;;;;;14.32;8.30;;;1.70;99.90;;;;;;4991188;28;20271;-93
2023/01/25 04:18:15;;;;;;;13.70;8.32;;;1.70;99.90;;;;;;4995447;28;20284;-93
2023/01/25 04:20:42;;;;;;;15.80;7.72;;;1.70;99.90;;;;;;4990260;28;20230;-94
2023/01/25 04:23:10;;;;;;;12.43;7.50;;;1.70;99.90;;;;;;4989481;28;20226;-94
2023/01/25 04:25:37;;;;;;;12.85;7.25;;;1.70;99.90;;;;;;4994340;28;20188;-94
2023/01/25 04:28:06;;;;;;;13.98;9.95;;;1.70;99.90;;;;;;4994956;28;20194;-93
2023/01/25 04:30:34;;;;;;;14.57;8.15;;;1.70;99.90;;;;;;4998252;28;20195;-95
2023/01/25 04:33:11;;;;;;;11.18;6.25;;;1.70;99.90;;;;;;5186556;23;20291;-91
2023/01/25 04:38:26;;;;;;;10.75;7.53;;;1.70;99.90;;;;;;5154027;23;20912;-68
2023/01/25 04:40:53;;;;;;;10.75;6.75;;;1.70;99.90;;;;;;4970203;28;20296;-69
2023/01/25 04:43:22;;;;;;;11.73;7.25;;;1.70;99.90;;;;;;4972049;28;20689;-71
2023/01/25 04:45:48;;;;;;;13.13;7.95;;;1.70;99.90;;;;;;4971803;28;20207;-70
2023/01/25 04:48:17;;;;;;;14.57;7.55;;;1.70;99.90;;;;;;4952148;28;20233;-70
2023/01/25 04:50:45;;;;;;;10.30;6.10;;;1.60;99.90;;;;;;4951977;29;20208;-69
2023/01/25 04:53:12;;;;;;;11.68;7.43;;;1.70;99.90;;;;;;4952379;29;20695;-68
2023/01/25 04:55:39;;;;;;;9.93;6.50;;;1.70;99.90;;;;;;4951524;29;20617;-70
2023/01/25 04:58:06;;;;;;;10.40;6.70;;;1.70;99.90;;;;;;4951261;28;20220;-69
2023/01/25 05:00:34;;;;;;;15.40;7.78;;;1.60;99.90;;;;;;4950338;29;20207;-70
2023/01/25 05:03:01;;;;;;;11.07;6.40;;;1.60;99.90;;;;;;4948707;29;20201;-70
2023/01/25 05:05:27;;;;;;;11.95;7.13;;;1.60;99.90;;;;;;4950583;29;20226;-70
2023/01/25 05:07:54;;;;;;;13.77;7.35;;;1.60;99.90;;;;;;4950770;29;20591;-69
2023/01/25 05:10:21;;;;;;;11.93;7.90;;;1.60;99.90;;;;;;4950968;29;20203;-70
2023/01/25 05:12:48;;;;;;;11.02;7.65;;;1.60;99.90;;;;;;4950371;29;20540;-69
2023/01/25 05:15:14;;;;;;;8.93;5.80;;;1.60;99.90;;;;;;4950976;29;20219;-69
2023/01/25 05:17:42;;;;;;;10.43;5.50;;;1.70;99.90;;;;;;4950418;29;20220;-69
2023/01/25 05:20:11;;;;;;;10.38;5.80;;;1.70;99.90;;;;;;4950463;29;20211;-70
2023/01/25 05:22:37;;;;;;;14.60;8.10;;;1.60;99.90;;;;;;4949648;29;20479;-70
2023/01/25 05:26:59;;;;;;;12.60;7.07;;;1.70;99.90;;;;;;4951053;29;20205;-70
2023/01/25 05:27:50;;;;;;;14.02;8.10;;;1.70;99.90;;;;;;4949105;29;20287;-70
2023/01/25 05:30:17;;;;;;;8.97;5.90;;;1.70;99.90;;;;;;4950669;29;20208;-70
2023/01/25 05:32:45;;;;;;;9.25;6.07;;;1.70;99.90;;;;;;4949276;29;20919;-69
2023/01/25 05:35:12;;;;;;;12.90;7.53;;;1.70;99.90;;;;;;4949389;29;20235;-69
2023/01/25 05:37:38;;;;;;;8.68;5.68;;;1.70;99.90;;;;;;4949493;29;20236;-71
2023/01/25 05:40:07;;;;;;;8.68;6.40;;;1.70;99.90;;;;;;4953526;28;20205;-71
2023/01/25 05:42:33;;;;;;;7.50;5.47;;;1.70;99.90;;;;;;4954793;29;20212;-70
2023/01/25 05:45:00;;;;;;;12.98;7.00;;;1.70;99.90;;;;;;4955914;29;20200;-71
2023/01/25 05:47:27;;;;;;;9.15;6.07;;;1.70;99.90;;;;;;4955693;29;20243;-71
2023/01/25 05:49:55;;;;;;;11.07;6.82;;;1.70;99.90;;;;;;4955251;29;20216;-71
2023/01/25 05:52:21;;;;;;;10.80;6.10;;;1.70;99.90;;;;;;4955517;29;20592;-71
2023/01/25 05:54:49;;;;;;;9.77;6.72;;;1.80;99.90;;;;;;4955485;29;20247;-71
2023/01/25 05:57:16;;;;;;;12.52;6.50;;;1.70;99.90;;;;;;4955565;29;20220;-71
2023/01/25 05:59:42;;;;;;;13.10;6.57;;;1.80;99.90;;;;;;4954890;29;20576;-71
2023/01/25 06:02:09;;;;;;;8.20;6.35;;;1.80;99.90;;;;;;4955560;29;20207;-71
2023/01/25 06:04:36;;;;;;;10.10;6.78;;;1.80;99.90;;;;;;4955449;29;20622;-71
2023/01/25 06:07:04;;;;;;;8.18;5.53;;;1.80;99.90;;;;;;4955530;29;20235;-71
2023/01/25 06:09:30;;;;;;;11.18;6.18;;;1.80;99.90;;;;;;4954476;29;20208;-71
2023/01/25 06:11:57;;;;;;;12.13;6.85;;;1.70;99.90;;;;;;4955140;29;20208;-71
2023/01/25 06:14:24;;;;;;;10.95;6.65;;;1.70;99.90;;;;;;4954719;29;20220;-71
2023/01/25 06:16:50;;;;;;;15.52;7.47;;;1.70;99.90;;;;;;4954865;29;20726;-70
2023/01/25 06:19:17;;;;;;;8.32;5.78;;;1.70;99.90;;;;;;4954481;29;20217;-70
2023/01/25 06:21:44;;;;;;;9.90;5.38;;;1.70;99.90;;;;;;4954905;29;20208;-71
2023/01/25 06:24:12;;;;;;;11.15;5.75;;;1.60;99.90;;;;;;4955230;29;20204;-71
2023/01/25 08:05:02;;;;;;;9.43;6.38;;;1.80;99.90;;;;;;2198069;23;20240;-91
2023/01/25 08:07:29;;;;;;;7.93;6.00;;;1.80;99.90;;;;;;4957742;29;20220;-91
2023/01/25 08:09:56;;;;;;;12.32;7.70;;;1.70;99.90;;;;;;4957869;29;20702;-91
2023/01/25 08:12:24;;;;;;;11.70;6.60;;;1.70;99.90;;;;;;4957436;29;20217;-91
2023/01/25 08:17:34;;;;;;;9.82;7.10;;;1.60;99.90;;;;;;4923747;29;20188;-92
2023/01/25 08:20:18;;;;;;;8.98;6.72;;;1.60;99.90;;;;;;4968873;28;20185;-93
2023/01/25 08:22:58;;;;;;;10.38;6.47;;;1.70;99.90;;;;;;4970844;28;20200;-92
2023/01/25 08:25:28;;;;;;;12.05;7.13;;;1.70;99.90;;;;;;4979723;28;20196;-93
2023/01/25 08:59:22;;;;;;;15.15;7.75;;;1.70;99.90;;;;;;671352;23;20505;-94
2023/01/25 09:05:10;;;;;;;11.38;6.57;;;1.80;99.90;;;;;;4894616;29;20206;-92
2023/01/25 15:20:57;;;;;;;15.05;9.40;;;1.30;99.90;;;;;;2520345;23;20706;-91
2023/01/25 15:23:26;;;;;;;15.35;7.68;;;1.40;99.90;;;;;;4957409;29;20224;-90
2023/01/25 15:25:54;;;;;;;14.50;8.60;;;1.40;99.90;;;;;;4957930;29;20219;-90
2023/01/25 15:28:22;;;;;;;13.52;7.47;;;1.40;99.90;;;;;;4958452;29;20303;-91
2023/01/25 15:30:49;;;;;;;17.80;8.68;;;1.50;99.90;;;;;;4958251;29;20212;-90
2023/01/25 15:33:20;;;;;;;13.40;7.78;;;1.40;99.90;;;;;;4959082;29;20232;-92
2023/01/25 15:35:47;;;;;;;14.05;8.23;;;1.40;99.90;;;;;;4957679;29;20703;-91
2023/01/25 15:38:16;;;;;;;22.20;10.02;;;1.40;99.90;;;;;;4958644;29;20235;-92
2023/01/25 15:40:44;;;;;;;14.07;8.55;;;1.40;99.90;;;;;;4957230;29;20212;-91
2023/01/25 15:43:11;;;;;;;15.23;9.70;;;1.40;99.90;;;;;;4961348;29;20235;-92
2023/01/25 15:45:39;;;;;;;14.60;8.32;;;1.40;99.90;;;;;;4960218;29;20193;-93
2023/01/25 15:48:06;;;;;;;16.25;9.65;;;1.40;99.90;;;;;;4959415;29;20235;-93
2023/01/25 15:50:33;;;;;;;12.88;8.85;;;1.50;99.90;;;;;;4960864;29;20212;-92
2023/01/25 15:53:00;;;;;;;15.13;9.88;;;1.50;99.90;;;;;;4961718;29;20235;-90
2023/01/25 15:55:28;;;;;;;12.90;8.32;;;1.40;99.90;;;;;;4962326;29;20231;-92
2023/01/25 15:57:56;;;;;;;13.98;8.18;;;1.30;99.90;;;;;;4957031;29;20208;-92
2023/01/25 16:00:23;;;;;;;18.90;8.55;;;1.30;99.90;;;;;;4957225;29;20213;-93
2023/01/25 16:02:50;;;;;;;13.93;7.47;;;1.20;99.90;;;;;;4957206;29;20283;-92
2023/01/25 16:05:17;;;;;;;12.65;7.72;;;1.20;99.90;;;;;;4957254;29;20247;-91
2023/01/25 16:07:45;;;;;;;11.48;7.38;;;1.10;99.90;;;;;;4958660;29;20208;-91
2023/01/25 16:10:20;;;;;;;11.68;7.55;;;1.20;99.90;;;;;;4957517;29;20197;-92
2023/01/25 16:12:49;;;;;;;15.75;8.10;;;1.20;99.90;;;;;;4960106;29;20227;-92
2023/01/25 16:15:17;;;;;;;14.50;8.23;;;1.20;99.90;;;;;;4963769;29;20283;-91
2023/01/25 16:17:43;;;;;;;11.48;7.25;;;1.30;99.90;;;;;;4963436;29;20211;-92
2023/01/25 16:20:18;;;;;;;15.18;9.10;;;1.30;99.90;;;;;;4960942;29;20210;-91
2023/01/25 16:22:45;;;;;;;15.95;9.25;;;1.30;99.90;;;;;;4961134;28;20149;-91
2023/01/25 16:25:11;;;;;;;15.38;8.82;;;1.40;99.90;;;;;;4972322;29;20208;-91
2023/01/25 16:27:38;;;;;;;12.40;7.38;;;1.40;99.90;;;;;;4971661;28;20209;-92
2023/01/25 16:30:08;;;;;;;10.63;7.50;;;1.30;99.90;;;;;;4965244;29;20200;-93
2023/01/25 16:32:35;;;;;;;13.15;6.88;;;1.30;99.90;;;;;;4968291;29;20232;-95
2023/01/25 16:35:02;;;;;;;12.13;7.00;;;1.30;99.90;;;;;;4968243;29;20258;-94
2023/01/25 16:37:29;;;;;;;15.68;9.23;;;1.20;99.90;;;;;;4971830;29;20280;-93
2023/01/25 16:39:55;;;;;;;10.20;6.57;;;1.20;99.90;;;;;;4972143;29;20212;-93
2023/01/25 16:42:27;;;;;;;12.45;7.15;;;1.20;99.90;;;;;;4968904;29;20224;-91
2023/01/25 16:45:29;;;;;;;12.80;7.68;;;1.20;99.90;;;;;;4962647;29;20192;-92
2023/01/25 16:50:42;;;;;;;16.67;7.63;;;1.10;99.90;;;;;;4961121;29;20188;-91
2023/01/25 16:53:14;;;;;;;12.10;7.93;;;1.00;99.90;;;;;;4960638;29;20234;-92
2023/01/25 17:09:42;;;;;;;12.48;6.38;;;1.20;99.90;;;;;;4961361;29;20207;-90
2023/01/25 17:12:12;;;;;;;17.08;8.60;;;1.20;99.90;;;;;;4968045;29;20200;-92
2023/01/25 17:17:30;;;;;;;12.68;6.80;;;1.20;99.90;;;;;;4961286;29;20215;-92
2023/01/25 17:22:41;;;;;;;11.82;6.72;;;1.20;99.90;;;;;;4963588;29;20219;-92
2023/01/25 17:28:20;;;;;;;9.93;7.63;;;1.30;99.90;;;;;;4933530;28;20188;-94
2023/01/25 17:42:51;;;;;;;12.23;6.35;;;1.20;99.90;;;;;;4984897;28;20211;-94
2023/01/25 17:45:19;;;;;;;9.27;5.85;;;1.20;99.90;;;;;;4942855;29;20689;-91
2023/01/25 17:47:46;;;;;;;11.35;6.57;;;1.10;99.90;;;;;;4959683;29;20200;-91
2023/01/25 19:47:16;;;;;;;11.55;7.15;;;1.10;99.90;;;;;;4959352;28;20744;-69
2023/01/25 19:49:42;;;;;;;14.95;7.20;;;1.10;99.90;;;;;;4964714;28;20199;-68
2023/01/25 19:52:09;;;;;;;9.27;6.57;;;1.10;99.90;;;;;;4965786;28;20978;-68
2023/01/25 19:54:36;;;;;;;11.85;7.32;;;1.10;99.90;;;;;;4967396;28;20594;-69
2023/01/25 19:57:03;;;;;;;15.57;7.95;;;1.10;99.90;;;;;;4967657;28;20326;-69
2023/01/25 19:59:29;;;;;;;10.15;6.78;;;1.10;99.90;;;;;;4966059;28;20227;-68
2023/01/25 20:01:56;;;;;;;16.02;7.85;;;1.10;99.90;;;;;;4967819;28;20211;-69
2023/01/25 20:04:24;;;;;;;13.10;7.32;;;1.10;99.90;;;;;;4967202;28;20618;-69
2023/01/25 20:06:51;;;;;;;9.27;5.97;;;1.10;99.90;;;;;;4967456;28;20227;-68
2023/01/25 20:09:23;;;;;;;9.50;6.25;;;1.10;99.90;;;;;;4964552;28;20220;-69
2023/01/25 20:11:50;;;;;;;12.80;7.28;;;1.10;99.90;;;;;;4947822;28;20240;-68
2023/01/25 20:14:17;;;;;;;11.63;7.57;;;1.10;99.90;;;;;;4948970;28;20235;-68
2023/01/25 20:16:45;;;;;;;13.88;8.32;;;1.10;99.90;;;;;;4947317;28;20319;-69
2023/01/25 20:19:12;;;;;;;12.40;6.38;;;1.10;99.90;;;;;;4964498;28;20212;-69
2023/01/25 20:21:40;;;;;;;13.20;7.57;;;1.10;99.90;;;;;;4967814;28;20653;-68
2023/01/25 20:24:09;;;;;;;10.70;6.78;;;1.10;99.90;;;;;;4968018;28;20948;-69
2023/01/25 20:26:37;;;;;;;12.55;7.30;;;1.10;99.90;;;;;;4966786;28;20323;-68
2023/01/25 20:29:05;;;;;;;11.20;6.72;;;1.10;99.90;;;;;;4967308;28;20214;-68
2023/01/25 20:31:34;;;;;;;10.85;6.93;;;1.10;99.90;;;;;;4967852;28;20898;-69
2023/01/25 20:34:03;;;;;;;15.60;7.38;;;1.10;99.90;;;;;;4967730;28;20211;-69
2023/01/25 20:36:31;;;;;;;11.40;6.95;;;1.10;99.90;;;;;;4966576;28;20240;-69
2023/01/25 20:38:59;;;;;;;8.68;5.90;;;1.10;99.90;;;;;;4966590;28;20208;-69
2023/01/25 20:41:26;;;;;;;11.18;7.15;;;1.10;99.90;;;;;;4967306;28;20714;-68
2023/01/25 20:43:55;;;;;;;12.55;7.72;;;0.90;99.90;;;;;;4966752;28;20231;-69
2023/01/25 20:46:23;;;;;;;11.85;6.95;;;0.80;99.90;;;;;;4962654;28;20332;-69
2023/01/25 20:48:52;;;;;;;8.60;6.10;;;0.80;99.90;;;;;;4956610;28;20765;-69
2023/01/25 20:51:20;;;;;;;11.45;6.07;;;0.80;99.90;;;;;;4967367;28;20208;-69
2023/01/25 20:53:48;;;;;;;9.25;5.53;;;0.80;99.90;;;;;;4967132;28;20219;-69
2023/01/25 20:56:17;;;;;;;10.63;6.50;;;0.90;99.90;;;;;;4968168;28;20235;-69
2023/01/25 20:58:49;;;;;;;10.02;6.93;;;0.90;99.90;;;;;;4966792;28;20279;-69
2023/01/25 21:01:23;;;;;;;13.18;6.95;;;0.90;99.90;;;;;;4967976;28;20294;-69
2023/01/25 21:03:52;;;;;;;15.43;7.78;;;0.90;99.90;;;;;;4966920;28;20218;-69
2023/01/25 21:06:19;;;;;;;14.00;7.82;;;1.00;99.90;;;;;;4966914;28;20224;-68
2023/01/25 21:08:46;;;;;;;15.35;9.02;;;1.00;99.90;;;;;;4966528;28;20204;-69
2023/01/25 21:11:12;;;;;;;13.38;8.48;;;1.00;99.90;;;;;;4966453;28;20219;-68
2023/01/25 21:13:42;;;;;;;16.50;8.02;;;1.00;99.90;;;;;;4967215;28;20239;-69
2023/01/25 21:16:14;;;;;;;13.23;7.35;;;1.00;99.90;;;;;;4949551;28;20228;-69
2023/01/25 21:18:42;;;;;;;10.48;6.70;;;1.00;99.90;;;;;;4947174;29;20239;-68
2023/01/25 21:21:10;;;;;;;10.93;7.05;;;1.00;99.90;;;;;;4947098;28;20230;-68
2023/01/25 21:23:39;;;;;;;12.45;6.65;;;1.10;99.90;;;;;;4947806;29;20213;-68
2023/01/25 21:26:07;;;;;;;12.45;8.45;;;1.00;99.90;;;;;;4948447;29;20228;-68
2023/01/25 21:28:35;;;;;;;13.77;7.97;;;1.00;99.90;;;;;;4947353;29;20212;-68
2023/01/25 21:31:08;;;;;;;11.38;6.90;;;1.00;99.90;;;;;;4948454;29;20227;-71
2023/01/25 21:33:35;;;;;;;15.20;7.93;;;1.00;99.90;;;;;;4948096;29;20279;-70
2023/01/25 21:36:07;;;;;;;15.18;6.80;;;1.10;99.90;;;;;;4947967;29;20609;-70
2023/01/25 21:38:34;;;;;;;10.93;6.70;;;1.10;99.90;;;;;;4947873;29;20220;-70
2023/01/25 21:41:01;;;;;;;10.98;6.80;;;1.10;99.90;;;;;;4947818;28;20212;-69
2023/01/25 21:43:27;;;;;;;13.35;7.95;;;1.00;99.90;;;;;;4948119;29;20208;-69
2023/01/25 21:46:15;;;;;;;13.25;7.57;;;1.00;99.90;;;;;;4948614;28;20298;-70
2023/01/25 21:51:38;;;;;;;13.55;7.18;;;0.90;99.90;;;;;;4948457;29;20283;-69
2023/01/25 21:54:05;;;;;;;14.02;6.35;;;0.80;99.90;;;;;;4947704;29;20241;-70
2023/01/25 21:56:31;;;;;;;12.30;8.23;;;0.80;99.90;;;;;;4948062;28;20228;-69
2023/01/25 21:58:58;;;;;;;13.48;7.88;;;0.80;99.90;;;;;;4947931;29;20212;-70
2023/01/25 22:01:25;;;;;;;14.57;8.68;;;0.90;99.90;;;;;;4948023;29;20678;-68
2023/01/25 22:03:53;;;;;;;16.58;9.07;;;0.90;99.90;;;;;;4948187;29;20216;-68
2023/01/25 22:06:19;;;;;;;15.65;8.95;;;0.90;99.90;;;;;;4947184;29;20260;-68
2023/01/25 22:08:46;;;;;;;15.80;8.98;;;1.00;99.90;;;;;;4947286;29;20275;-69
2023/01/25 22:11:13;;;;;;;17.98;9.45;;;0.90;99.90;;;;;;4947662;28;20228;-70
2023/01/25 22:13:40;;;;;;;14.45;9.13;;;1.00;99.90;;;;;;4947932;29;20241;-70
2023/01/25 22:16:09;;;;;;;13.65;8.32;;;1.00;99.90;;;;;;4947938;29;20240;-69
2023/01/25 22:18:37;;;;;;;15.10;9.50;;;0.90;99.90;;;;;;4946452;29;20208;-69
2023/01/25 22:21:07;;;;;;;12.07;8.25;;;1.00;99.90;;;;;;4948328;28;20616;-69
2023/01/25 22:23:34;;;;;;;17.67;8.40;;;1.00;99.90;;;;;;4950381;29;20208;-69
2023/01/25 22:26:03;;;;;;;11.73;8.88;;;0.90;99.90;;;;;;4951724;28;20252;-69
2023/01/25 22:28:33;;;;;;;14.48;7.95;;;0.90;99.90;;;;;;4950736;29;20209;-69
2023/01/25 22:31:00;;;;;;;16.10;9.68;;;0.90;99.90;;;;;;4950748;29;20212;-69
2023/01/25 22:33:27;;;;;;;17.25;8.15;;;0.90;99.90;;;;;;4951233;29;20211;-69
2023/01/25 22:35:53;;;;;;;21.05;9.60;;;0.90;99.90;;;;;;4950628;28;20228;-69
2023/01/25 22:38:22;;;;;;;15.90;8.75;;;1.00;99.90;;;;;;4950738;29;20212;-68
2023/01/25 22:40:48;;;;;;;13.52;8.70;;;1.00;99.90;;;;;;4950589;28;20220;-68
2023/01/25 22:43:15;;;;;;;19.63;8.75;;;1.00;99.90;;;;;;4950920;29;20209;-68
2023/01/25 22:45:49;;;;;;;12.98;7.93;;;1.00;99.90;;;;;;4950661;28;20232;-69
2023/01/25 22:48:16;;;;;;;15.88;9.02;;;1.10;99.90;;;;;;4950458;29;20279;-69
2023/01/25 22:50:42;;;;;;;17.80;9.10;;;1.10;99.90;;;;;;4950880;29;20213;-69
2023/01/25 22:53:09;;;;;;;17.73;8.70;;;1.10;99.90;;;;;;4950503;29;20200;-69
2023/01/25 22:55:37;;;;;;;13.77;8.93;;;1.00;99.90;;;;;;4950387;29;20232;-69
2023/01/25 22:58:04;;;;;;;14.05;9.23;;;1.00;99.90;;;;;;4953947;29;20228;-69
2023/01/25 23:00:31;;;;;;;16.98;10.48;;;1.00;99.90;;;;;;4953413;29;20215;-69
2023/01/25 23:02:57;;;;;;;19.08;9.65;;;1.00;99.90;;;;;;4954372;29;20212;-69
2023/01/25 23:05:26;;;;;;;14.93;10.48;;;1.10;99.90;;;;;;4953830;29;20239;-69
2023/01/25 23:07:53;;;;;;;17.00;9.27;;;1.10;99.90;;;;;;4951964;29;20868;-68
2023/01/25 23:10:19;;;;;;;17.77;9.40;;;1.10;99.90;;;;;;4949073;29;20215;-69
2023/01/25 23:12:47;;;;;;;18.55;9.95;;;1.10;99.90;;;;;;4950321;29;20560;-69
2023/01/25 23:15:15;;;;;;;19.65;10.93;;;1.00;99.90;;;;;;4950790;29;20626;-69
2023/01/25 23:20:26;;;;;;;15.43;9.75;;;1.00;99.90;;;;;;4950167;29;20199;-68
2023/01/25 23:22:53;;;;;;;16.65;8.60;;;1.00;99.90;;;;;;4950496;29;20216;-69
2023/01/25 23:25:20;;;;;;;23.50;10.43;;;1.10;99.90;;;;;;4950482;29;20236;-69
2023/01/25 23:27:48;;;;;;;22.73;11.45;;;1.00;99.90;;;;;;4950952;29;20204;-69
2023/01/25 23:30:15;;;;;;;19.90;10.30;;;1.00;99.90;;;;;;4949569;29;20219;-68
2023/01/25 23:32:47;;;;;;;19.80;10.27;;;1.00;99.90;;;;;;4949814;28;20220;-69
2023/01/25 23:35:15;;;;;;;21.38;10.75;;;1.00;99.90;;;;;;4950050;29;20224;-69
2023/01/25 23:37:42;;;;;;;18.50;10.60;;;1.00;99.90;;;;;;4949607;29;20220;-69
2023/01/25 23:40:10;;;;;;;17.73;10.10;;;1.00;99.90;;;;;;4949676;29;20211;-69
2023/01/25 23:42:37;;;;;;;22.75;10.57;;;1.00;99.90;;;;;;4949143;29;20295;-70
2023/01/25 23:45:07;;;;;;;20.90;10.18;;;1.00;99.90;;;;;;4949739;29;20228;-70
2023/01/25 23:47:34;;;;;;;16.45;7.70;;;1.00;99.90;;;;;;4949220;29;20204;-70
2023/01/25 23:50:01;;;;;;;19.90;9.23;;;1.00;99.90;;;;;;4949111;29;20223;-69
2023/01/25 23:52:28;;;;;;;17.35;9.75;;;1.00;99.90;;;;;;4949487;29;20205;-70
2023/01/25 23:54:54;;;;;;;21.10;10.00;;;0.90;99.90;;;;;;4949001;28;20243;-69
2023/01/25 23:57:21;;;;;;;19.50;10.13;;;0.90;99.90;;;;;;4949853;29;20228;-69
2023/01/25 23:59:48;;;;;;;20.02;10.10;;;0.90;99.90;;;;;;4948375;28;20644;-69
